createdAt,value
2023-02-19T00:02:28.563Z,4.20
2023-02-19T00:12:34.351Z,5.20
2023-02-19T00:22:40.273Z,3.90
2023-02-19T00:32:51.305Z,4.00
2023-02-19T00:42:57.183Z,4.80
2023-02-19T00:53:02.937Z,4.70
2023-02-19T01:03:08.682Z,5.60
2023-02-19T01:13:14.421Z,6.60
2023-02-19T01:23:20.442Z,5.80
2023-02-19T01:33:26.508Z,5.40
2023-02-19T01:43:32.676Z,5.60
2023-02-19T01:53:43.017Z,5.40
2023-02-19T02:03:50.808Z,4.90
2023-02-19T02:13:57.805Z,4.60
2023-02-19T02:24:13.926Z,4.30
2023-02-19T02:34:24.779Z,4.70
2023-02-19T02:44:38.709Z,5.20
2023-02-19T02:55:02.856Z,5.30
2023-02-19T03:05:31.820Z,5.30
2023-02-19T03:16:00.511Z,8.00
2023-02-19T03:26:07.198Z,6.70
2023-02-19T03:46:27.920Z,5.70
2023-02-19T03:56:40.385Z,6.60
2023-02-19T04:06:53.840Z,5.80
2023-02-19T04:17:04.330Z,6.60
2023-02-19T04:27:12.093Z,6.70
2023-02-19T04:37:17.771Z,6.40
2023-02-19T04:47:23.539Z,6.50
2023-02-19T04:57:29.432Z,7.60
2023-02-19T05:07:35.297Z,7.30
2023-02-19T05:17:40.955Z,9.10
2023-02-19T05:27:46.822Z,8.60
2023-02-19T05:37:52.500Z,7.50
2023-02-19T05:47:58.206Z,8.40
2023-02-19T05:58:04.138Z,6.80
2023-02-19T06:08:10.749Z,7.50
2023-02-19T06:18:16.386Z,7.80
2023-02-19T06:28:22.035Z,7.30
2023-02-19T06:38:27.881Z,8.00
2023-02-19T06:48:34.846Z,10.30
2023-02-19T06:58:40.756Z,8.90
2023-02-19T07:08:46.579Z,8.70
2023-02-19T07:18:52.832Z,6.90
2023-02-19T07:28:58.728Z,6.90
2023-02-19T07:39:04.616Z,6.40
2023-02-19T07:49:10.343Z,7.90
2023-02-19T07:59:19.421Z,5.80
2023-02-19T08:09:25.083Z,6.30
2023-02-19T08:19:30.733Z,5.50
2023-02-19T08:29:36.313Z,6.10
2023-02-19T08:39:41.964Z,5.20
2023-02-19T08:49:47.655Z,6.00
2023-02-19T08:59:53.310Z,5.90
2023-02-19T09:09:59.033Z,6.10
2023-02-19T09:20:05.293Z,6.20
2023-02-19T09:30:12.084Z,5.50
2023-02-19T09:40:21.669Z,5.10
2023-02-19T09:50:34.139Z,3.90
2023-02-19T10:00:40.625Z,4.90
2023-02-19T10:10:46.835Z,3.80
2023-02-19T10:20:53.647Z,3.40
2023-02-19T10:31:01.236Z,3.70
2023-02-19T10:41:09.893Z,3.10
2023-02-19T10:51:21.735Z,2.50
2023-02-19T11:01:27.955Z,2.50
2023-02-19T11:11:39.097Z,2.70
2023-02-19T11:21:45.206Z,2.60
2023-02-19T11:31:51.631Z,2.50
2023-02-19T11:42:15.097Z,2.30
2023-02-19T11:52:33.295Z,2.00
2023-02-19T12:03:10.596Z,2.60
2023-02-19T12:13:24.775Z,2.40
2023-02-19T12:23:45.493Z,2.70
2023-02-19T12:34:06.955Z,2.10
2023-02-19T12:44:19.080Z,1.60
2023-02-19T12:54:30.396Z,1.80
2023-02-19T13:04:44.145Z,2.10
2023-02-19T13:14:55.728Z,1.70
2023-02-19T13:25:03.466Z,1.90
2023-02-19T13:35:25.897Z,1.60
2023-02-19T13:45:37.247Z,1.60
2023-02-19T13:55:54.276Z,1.60
2023-02-19T14:06:06.133Z,2.20
2023-02-19T14:16:31.887Z,1.60
2023-02-19T14:26:37.952Z,1.40
2023-02-19T14:36:48.916Z,1.50
2023-02-19T14:47:01.845Z,0.90
2023-02-19T14:57:13.979Z,1.30
2023-02-19T15:07:24.501Z,1.70
2023-02-19T15:17:32.418Z,1.90
2023-02-19T15:27:38.378Z,1.80
2023-02-19T15:37:44.219Z,2.20
2023-02-19T15:47:54.510Z,1.60
2023-02-19T15:58:10.307Z,2.20
2023-02-19T16:08:30.934Z,1.80
2023-02-19T16:18:37.158Z,2.10
2023-02-19T16:28:44.170Z,2.00
2023-02-19T16:39:14.108Z,2.80
2023-02-19T16:49:20.357Z,2.90
2023-02-19T16:59:26.124Z,3.20
2023-02-19T17:09:31.889Z,3.00
2023-02-19T17:19:39.315Z,3.80
2023-02-19T17:29:45.059Z,2.90
2023-02-19T17:39:51.529Z,2.90
2023-02-19T17:49:57.696Z,2.00
2023-02-19T18:00:04.595Z,2.20
2023-02-19T18:20:17.875Z,3.20
2023-02-19T18:30:24.535Z,3.00
2023-02-19T18:40:30.513Z,3.30
2023-02-19T18:50:36.344Z,3.30
2023-02-19T19:00:42.110Z,3.10
2023-02-19T19:10:47.885Z,4.00
2023-02-19T19:20:56.691Z,4.10
2023-02-19T19:31:03.110Z,4.70
2023-02-19T19:51:13.493Z,3.40
2023-02-19T20:01:21.144Z,5.70
2023-02-19T20:11:27.585Z,4.50
2023-02-19T20:21:33.547Z,4.80
2023-02-19T20:31:39.526Z,3.40
2023-02-19T20:41:49.242Z,3.70
2023-02-19T20:51:58.113Z,2.90
2023-02-19T21:02:04.509Z,2.80
2023-02-19T21:22:14.714Z,4.50
2023-02-19T21:32:20.525Z,3.00
2023-02-19T21:42:26.473Z,3.10
2023-02-19T21:52:32.402Z,2.00
2023-02-19T22:02:38.759Z,4.60
2023-02-19T22:12:44.464Z,4.10
2023-02-19T22:22:50.763Z,5.50
2023-02-19T22:43:01.129Z,6.10
2023-02-19T22:53:06.959Z,5.10
2023-02-19T23:03:12.844Z,4.70
2023-02-19T23:13:18.572Z,4.90
2023-02-19T23:23:24.233Z,4.70
2023-02-19T23:33:30.332Z,4.60
2023-02-19T23:43:36.161Z,4.70
2023-02-19T23:53:42.141Z,5.30
